^^

Weather Underground History

Daily Summary for July 26, 2019 Units:  Metric    English   Both
Daily Weekly Monthly Yearly
  High: Low: Average:
Temperature: 17 °C 9 °C 14.4 °C
Dew Point: 15 °C 7 °C 10.8 °C
Humidity: 92% 59% 80%
Wind Speed: 22km/h 1km/h 10.7km/h
Wind Gust: 39km/h - -
Wind- - West
Pressure: 1014.6 hPa 1008.1 hPa -
Precipitation: 0.5 mm    
 
 
Tabular Data for July 26, 2019
Time Temperature Dew Point Pressure Wind Wind Speed Wind Gust Humidity Rainfall Rate (Hourly) solar
00:04 14 °C 12 °C 1014.6 hPa WSW 6 km/h 13 km/h 85% 0.0 mm 0 W/m2
00:09 14 °C 12 °C 1014.5 hPa WSW 6 km/h 11 km/h 85% 0.0 mm 0 W/m2
00:14 14 °C 12 °C 1014.5 hPa West 6 km/h 14 km/h 85% 0.0 mm 0 W/m2
00:19 14 °C 12 °C 1014.4 hPa West 6 km/h 11 km/h 85% 0.0 mm 0 W/m2
00:24 14 °C 11 °C 1014.3 hPa WSW 6 km/h 11 km/h 85% 0.0 mm 0 W/m2
00:29 14 °C 11 °C 1014.3 hPa WSW 6 km/h 11 km/h 85% 0.0 mm 0 W/m2
00:34 14 °C 11 °C 1014.3 hPa WSW 6 km/h 13 km/h 85% 0.0 mm 0 W/m2
00:39 14 °C 11 °C 1014.2 hPa WSW 7 km/h 13 km/h 85% 0.0 mm 0 W/m2
00:44 14 °C 11 °C 1014.2 hPa WSW 6 km/h 13 km/h 84% 0.0 mm 0 W/m2
00:49 14 °C 11 °C 1014.2 hPa WSW 7 km/h 14 km/h 84% 0.0 mm 0 W/m2
00:54 14 °C 11 °C 1014.1 hPa WSW 7 km/h 13 km/h 84% 0.0 mm 0 W/m2
00:59 14 °C 11 °C 1014.0 hPa WSW 7 km/h 14 km/h 84% 0.0 mm 0 W/m2
01:04 14 °C 11 °C 1014.0 hPa WSW 6 km/h 11 km/h 84% 0.0 mm 0 W/m2
01:09 14 °C 11 °C 1014.0 hPa WSW 6 km/h 10 km/h 84% 0.0 mm 0 W/m2
01:14 14 °C 11 °C 1013.9 hPa WSW 6 km/h 10 km/h 85% 0.0 mm 0 W/m2
01:19 13 °C 11 °C 1013.9 hPa WSW 5 km/h 10 km/h 85% 0.0 mm 0 W/m2
01:24 13 °C 11 °C 1013.8 hPa WSW 4 km/h 8 km/h 85% 0.0 mm 0 W/m2
01:29 13 °C 11 °C 1013.6 hPa WSW 5 km/h 8 km/h 85% 0.0 mm 0 W/m2
01:34 13 °C 11 °C 1013.6 hPa WSW 3 km/h 10 km/h 85% 0.0 mm 0 W/m2
01:39 13 °C 11 °C 1013.5 hPa WSW 4 km/h 10 km/h 85% 0.0 mm 0 W/m2
01:44 13 °C 11 °C 1013.5 hPa WSW 2 km/h 6 km/h 86% 0.0 mm 0 W/m2
01:49 13 °C 11 °C 1013.4 hPa WSW 1 km/h 6 km/h 86% 0.0 mm 0 W/m2
01:54 13 °C 11 °C 1013.4 hPa WSW 6 km/h 10 km/h 86% 0.0 mm 0 W/m2
01:59 13 °C 11 °C 1013.4 hPa WSW 6 km/h 10 km/h 86% 0.0 mm 0 W/m2
02:04 13 °C 11 °C 1013.4 hPa SW 7 km/h 14 km/h 87% 0.0 mm 0 W/m2
02:09 13 °C 11 °C 1013.2 hPa SW 7 km/h 14 km/h 87% 0.0 mm 0 W/m2
02:14 13 °C 11 °C 1013.2 hPa SW 6 km/h 10 km/h 87% 0.0 mm 0 W/m2
02:19 13 °C 11 °C 1013.2 hPa SW 7 km/h 13 km/h 88% 0.0 mm 0 W/m2
02:24 13 °C 11 °C 1013.1 hPa SW 7 km/h 11 km/h 88% 0.0 mm 0 W/m2
02:29 13 °C 11 °C 1013.0 hPa SW 6 km/h 11 km/h 88% 0.0 mm 0 W/m2
02:34 13 °C 11 °C 1012.9 hPa SW 6 km/h 11 km/h 88% 0.0 mm 0 W/m2
02:39 13 °C 11 °C 1012.9 hPa SW 5 km/h 10 km/h 88% 0.0 mm 0 W/m2
02:44 13 °C 11 °C 1012.9 hPa SW 7 km/h 11 km/h 89% 0.0 mm 0 W/m2
02:49 13 °C 11 °C 1012.8 hPa SW 6 km/h 10 km/h 89% 0.0 mm 0 W/m2
02:54 13 °C 11 °C 1012.7 hPa SW 6 km/h 10 km/h 89% 0.0 mm 0 W/m2
02:59 13 °C 11 °C 1012.7 hPa SW 5 km/h 10 km/h 89% 0.0 mm 0 W/m2
03:04 13 °C 11 °C 1012.7 hPa SW 4 km/h 10 km/h 89% 0.0 mm 0 W/m2
03:09 13 °C 11 °C 1012.6 hPa SW 5 km/h 10 km/h 89% 0.0 mm 0 W/m2
03:14 13 °C 11 °C 1012.5 hPa SW 4 km/h 6 km/h 89% 0.0 mm 0 W/m2
03:19 13 °C 11 °C 1012.5 hPa SW 5 km/h 10 km/h 89% 0.0 mm 0 W/m2
03:24 13 °C 11 °C 1012.4 hPa SW 4 km/h 8 km/h 89% 0.0 mm 0 W/m2
03:29 13 °C 11 °C 1012.4 hPa SW 5 km/h 8 km/h 90% 0.0 mm 0 W/m2
03:34 13 °C 11 °C 1012.4 hPa SW 5 km/h 10 km/h 90% 0.0 mm 0 W/m2
03:39 13 °C 11 °C 1012.3 hPa SW 5 km/h 10 km/h 90% 0.0 mm 0 W/m2
03:44 13 °C 11 °C 1012.1 hPa SW 5 km/h 10 km/h 90% 0.0 mm 0 W/m2
03:49 13 °C 11 °C 1012.1 hPa SW 7 km/h 10 km/h 90% 0.0 mm 0 W/m2
03:54 13 °C 11 °C 1012.1 hPa WSW 6 km/h 11 km/h 90% 0.0 mm 0 W/m2
03:59 13 °C 11 °C 1012.1 hPa SW 7 km/h 14 km/h 90% 0.0 mm 0 W/m2
04:04 13 °C 11 °C 1012.0 hPa WSW 6 km/h 11 km/h 90% 0.0 mm 0 W/m2
04:09 13 °C 11 °C 1011.9 hPa SW 7 km/h 10 km/h 90% 0.0 mm 0 W/m2
04:14 13 °C 11 °C 1011.8 hPa SW 6 km/h 10 km/h 90% 0.0 mm 0 W/m2
04:19 13 °C 11 °C 1011.6 hPa SW 6 km/h 10 km/h 90% 0.0 mm 0 W/m2
04:24 13 °C 11 °C 1011.6 hPa SW 6 km/h 13 km/h 90% 0.0 mm 0 W/m2
04:29 13 °C 11 °C 1011.6 hPa SW 6 km/h 13 km/h 90% 0.0 mm 0 W/m2
04:34 13 °C 11 °C 1011.5 hPa SW 7 km/h 11 km/h 90% 0.0 mm 0 W/m2
04:39 13 °C 11 °C 1011.3 hPa WSW 7 km/h 11 km/h 90% 0.0 mm 0 W/m2
04:44 13 °C 11 °C 1011.3 hPa WSW 8 km/h 13 km/h 90% 0.0 mm 5 W/m2
04:49 13 °C 11 °C 1011.2 hPa SW 9 km/h 14 km/h 90% 0.0 mm 5 W/m2
04:54 13 °C 11 °C 1011.2 hPa SW 9 km/h 13 km/h 90% 0.0 mm 5 W/m2
04:59 13 °C 11 °C 1011.2 hPa SW 9 km/h 14 km/h 91% 0.0 mm 9 W/m2
05:04 13 °C 11 °C 1011.1 hPa WSW 9 km/h 14 km/h 91% 0.0 mm 12 W/m2
05:09 13 °C 11 °C 1011.1 hPa SW 11 km/h 14 km/h 91% 0.0 mm 14 W/m2
05:14 13 °C 11 °C 1011.1 hPa SW 9 km/h 13 km/h 90% 0.0 mm 18 W/m2
05:19 13 °C 11 °C 1011.1 hPa SW 8 km/h 13 km/h 90% 0.0 mm 19 W/m2
05:24 13 °C 11 °C 1011.1 hPa WSW 9 km/h 13 km/h 90% 0.0 mm 26 W/m2
05:29 13 °C 12 °C 1011.0 hPa WSW 10 km/h 19 km/h 91% 0.0 mm 33 W/m2
05:34 13 °C 12 °C 1011.0 hPa WSW 10 km/h 16 km/h 90% 0.0 mm 67 W/m2
05:39 13 °C 12 °C 1010.9 hPa WSW 11 km/h 23 km/h 90% 0.0 mm 86 W/m2
05:44 13 °C 12 °C 1010.9 hPa WSW 11 km/h 23 km/h 90% 0.0 mm 83 W/m2
05:49 14 °C 12 °C 1010.8 hPa WSW 12 km/h 23 km/h 90% 0.0 mm 83 W/m2
05:54 14 °C 12 °C 1010.9 hPa WSW 11 km/h 18 km/h 90% 0.0 mm 72 W/m2
05:59 14 °C 12 °C 1010.8 hPa WSW 11 km/h 18 km/h 90% 0.0 mm 77 W/m2
06:04 14 °C 12 °C 1010.7 hPa WSW 10 km/h 18 km/h 90% 0.0 mm 72 W/m2
06:09 14 °C 12 °C 1010.7 hPa WSW 13 km/h 21 km/h 89% 0.0 mm 97 W/m2
06:14 14 °C 12 °C 1010.7 hPa SW 11 km/h 21 km/h 89% 0.0 mm 97 W/m2
06:19 14 °C 12 °C 1010.7 hPa WSW 11 km/h 21 km/h 89% 0.0 mm 77 W/m2
06:24 14 °C 12 °C 1010.7 hPa WSW 9 km/h 16 km/h 89% 0.0 mm 60 W/m2
06:29 14 °C 12 °C 1010.7 hPa WSW 10 km/h 16 km/h 89% 0.0 mm 70 W/m2
06:34 14 °C 12 °C 1010.6 hPa WSW 8 km/h 16 km/h 89% 0.0 mm 62 W/m2
06:39 14 °C 12 °C 1010.6 hPa SW 11 km/h 23 km/h 89% 0.0 mm 60 W/m2
06:44 14 °C 12 °C 1010.5 hPa WSW 11 km/h 23 km/h 89% 0.0 mm 62 W/m2
06:49 14 °C 13 °C 1010.4 hPa WSW 10 km/h 16 km/h 89% 0.0 mm 91 W/m2
06:54 14 °C 13 °C 1010.3 hPa SW 10 km/h 19 km/h 89% 0.0 mm 95 W/m2
06:59 14 °C 13 °C 1010.2 hPa SW 11 km/h 21 km/h 89% 0.0 mm 105 W/m2
07:04 14 °C 13 °C 1010.1 hPa WSW 11 km/h 16 km/h 89% 0.0 mm 105 W/m2
07:09 14 °C 13 °C 1010.0 hPa SW 10 km/h 14 km/h 88% 0.0 mm 120 W/m2
07:14 15 °C 13 °C 1009.9 hPa WSW 9 km/h 18 km/h 88% 0.0 mm 155 W/m2
07:19 15 °C 13 °C 1009.9 hPa WSW 11 km/h 19 km/h 88% 0.0 mm 132 W/m2
07:24 15 °C 13 °C 1009.9 hPa WSW 11 km/h 19 km/h 88% 0.0 mm 121 W/m2
07:29 15 °C 13 °C 1009.8 hPa SW 14 km/h 26 km/h 87% 0.0 mm 111 W/m2
07:34 15 °C 13 °C 1009.8 hPa WSW 14 km/h 26 km/h 87% 0.0 mm 97 W/m2
07:39 15 °C 13 °C 1009.8 hPa WSW 14 km/h 26 km/h 87% 0.0 mm 90 W/m2
07:44 15 °C 13 °C 1009.8 hPa SW 12 km/h 21 km/h 87% 0.0 mm 79 W/m2
07:49 15 °C 13 °C 1009.7 hPa WSW 12 km/h 21 km/h 87% 0.0 mm 123 W/m2
07:54 15 °C 13 °C 1009.8 hPa WSW 14 km/h 24 km/h 86% 0.0 mm 156 W/m2
07:59 16 °C 13 °C 1009.6 hPa WSW 14 km/h 24 km/h 86% 0.0 mm 169 W/m2
08:04 16 °C 13 °C 1009.6 hPa WSW 17 km/h 32 km/h 86% 0.0 mm 200 W/m2
08:09 16 °C 13 °C 1009.5 hPa WSW 18 km/h 34 km/h 86% 0.0 mm 246 W/m2
08:14 16 °C 13 °C 1009.5 hPa WSW 16 km/h 34 km/h 86% 0.0 mm 250 W/m2
08:19 16 °C 13 °C 1009.5 hPa WSW 19 km/h 37 km/h 86% 0.0 mm 345 W/m2
08:24 16 °C 13 °C 1009.5 hPa WSW 19 km/h 37 km/h 85% 0.0 mm 237 W/m2
08:29 16 °C 13 °C 1009.4 hPa WSW 22 km/h 32 km/h 85% 0.0 mm 190 W/m2
08:34 16 °C 13 °C 1009.5 hPa WSW 22 km/h 39 km/h 85% 0.0 mm 216 W/m2
08:39 16 °C 13 °C 1009.5 hPa WSW 16 km/h 39 km/h 85% 0.0 mm 232 W/m2
08:44 16 °C 13 °C 1009.4 hPa WSW 17 km/h 27 km/h 85% 0.0 mm 144 W/m2
08:49 16 °C 13 °C 1009.5 hPa WSW 15 km/h 26 km/h 85% 0.0 mm 153 W/m2
08:54 16 °C 13 °C 1009.5 hPa WSW 17 km/h 27 km/h 86% 0.0 mm 316 W/m2
08:59 16 °C 13 °C 1009.3 hPa WSW 19 km/h 27 km/h 86% 0.0 mm 485 W/m2
09:04 16 °C 13 °C 1009.2 hPa WSW 19 km/h 34 km/h 85% 0.0 mm 236 W/m2
09:09 16 °C 13 °C 1009.3 hPa WSW 19 km/h 32 km/h 85% 0.0 mm 209 W/m2
09:14 16 °C 13 °C 1009.3 hPa WSW 19 km/h 32 km/h 85% 0.0 mm 128 W/m2
09:19 16 °C 13 °C 1009.2 hPa WSW 17 km/h 29 km/h 87% 0.0 mm 148 W/m2
09:24 16 °C 13 °C 1009.1 hPa WSW 16 km/h 27 km/h 87% 0.0 mm 171 W/m2
09:29 16 °C 13 °C 1009.2 hPa WSW 16 km/h 27 km/h 88% 0.0 mm 132 W/m2
09:34 16 °C 13 °C 1009.3 hPa WSW 14 km/h 21 km/h 88% 0.0 mm 130 W/m2
09:39 16 °C 13 °C 1009.3 hPa WSW 15 km/h 23 km/h 88% 0.0 mm 169 W/m2
09:44 16 °C 13 °C 1009.1 hPa WSW 16 km/h 27 km/h 89% 0.0 mm 178 W/m2
09:49 16 °C 13 °C 1009.1 hPa WSW 13 km/h 26 km/h 89% 0.0 mm 130 W/m2
09:54 16 °C 13 °C 1009.1 hPa WSW 16 km/h 26 km/h 89% 0.0 mm 114 W/m2
09:59 16 °C 13 °C 1009.1 hPa WSW 13 km/h 24 km/h 89% 0.0 mm 114 W/m2
10:04 16 °C 13 °C 1009.1 hPa WSW 13 km/h 26 km/h 89% 0.0 mm 118 W/m2
10:09 16 °C 13 °C 1009.1 hPa WSW 12 km/h 26 km/h 89% 0.0 mm 167 W/m2
10:14 16 °C 14 °C 1009.1 hPa WSW 15 km/h 23 km/h 90% 0.0 mm 227 W/m2
10:19 16 °C 14 °C 1009.1 hPa WSW 14 km/h 24 km/h 90% 0.0 mm 227 W/m2
10:24 16 °C 14 °C 1009.1 hPa WSW 14 km/h 21 km/h 89% 0.0 mm 162 W/m2
10:29 16 °C 14 °C 1009.2 hPa WSW 15 km/h 26 km/h 89% 0.0 mm 135 W/m2
10:34 16 °C 13 °C 1009.2 hPa WSW 13 km/h 26 km/h 89% 0.0 mm 160 W/m2
10:39 15 °C 14 °C 1009.1 hPa WSW 10 km/h 26 km/h 90% 0.0 mm 162 W/m2
10:44 15 °C 14 °C 1009.1 hPa WSW 13 km/h 21 km/h 91% 0.0 mm 162 W/m2
10:49 15 °C 14 °C 1009.1 hPa WSW 15 km/h 26 km/h 91% 0.0 mm 169 W/m2
10:54 15 °C 14 °C 1009.2 hPa WSW 15 km/h 26 km/h 91% 0.0 mm 174 W/m2
10:59 15 °C 14 °C 1009.1 hPa WSW 14 km/h 26 km/h 91% 0.0 mm 153 W/m2
11:04 15 °C 14 °C 1009.1 hPa WSW 15 km/h 26 km/h 91% 0.0 mm 153 W/m2
11:09 15 °C 14 °C 1009.1 hPa WSW 12 km/h 19 km/h 91% 0.0 mm 128 W/m2
11:14 15 °C 14 °C 1009.1 hPa WSW 9 km/h 16 km/h 91% 0.0 mm 144 W/m2
11:19 15 °C 14 °C 1009.1 hPa WSW 13 km/h 19 km/h 92% 0.0 mm 153 W/m2
11:24 15 °C 14 °C 1009.1 hPa WSW 10 km/h 16 km/h 92% 0.0 mm 137 W/m2
11:29 15 °C 14 °C 1009.1 hPa WSW 13 km/h 29 km/h 92% 0.0 mm 125 W/m2
11:34 15 °C 14 °C 1009.1 hPa West 14 km/h 32 km/h 92% 0.0 mm 214 W/m2
11:39 15 °C 14 °C 1009.0 hPa West 13 km/h 23 km/h 92% 0.0 mm 304 W/m2
11:44 16 °C 14 °C 1009.0 hPa WSW 14 km/h 19 km/h 92% 0.0 mm 330 W/m2
11:49 16 °C 14 °C 1008.8 hPa WSW 11 km/h 24 km/h 92% 0.0 mm 371 W/m2
11:54 16 °C 14 °C 1008.7 hPa WSW 13 km/h 29 km/h 92% 0.0 mm 457 W/m2
11:59 16 °C 14 °C 1008.6 hPa WSW 14 km/h 29 km/h 92% 0.0 mm 457 W/m2
12:04 16 °C 14 °C 1008.7 hPa WSW 15 km/h 23 km/h 91% 0.0 mm 394 W/m2
12:09 16 °C 14 °C 1008.7 hPa WSW 13 km/h 24 km/h 90% 0.0 mm 325 W/m2
12:14 16 °C 14 °C 1008.7 hPa West 14 km/h 24 km/h 90% 0.0 mm 251 W/m2
12:19 16 °C 14 °C 1008.6 hPa WSW 13 km/h 23 km/h 89% 0.0 mm 332 W/m2
12:24 16 °C 14 °C 1008.6 hPa WSW 13 km/h 24 km/h 89% 0.0 mm 334 W/m2
12:29 16 °C 14 °C 1008.6 hPa WSW 15 km/h 29 km/h 88% 0.0 mm 262 W/m2
12:34 17 °C 14 °C 1008.5 hPa WSW 12 km/h 29 km/h 88% 0.0 mm 299 W/m2
12:39 17 °C 14 °C 1008.6 hPa West 10 km/h 21 km/h 88% 0.0 mm 311 W/m2
12:44 17 °C 14 °C 1008.5 hPa WSW 12 km/h 21 km/h 88% 0.0 mm 424 W/m2
12:49 17 °C 15 °C 1008.4 hPa West 8 km/h 21 km/h 88% 0.0 mm 355 W/m2
12:54 17 °C 15 °C 1008.4 hPa West 15 km/h 23 km/h 88% 0.0 mm 944 W/m2
12:59 17 °C 15 °C 1008.4 hPa West 14 km/h 24 km/h 86% 0.0 mm 944 W/m2
13:04 17 °C 14 °C 1008.4 hPa West 13 km/h 24 km/h 84% 0.0 mm 269 W/m2
13:09 17 °C 14 °C 1008.3 hPa WNW 10 km/h 21 km/h 83% 0.0 mm 155 W/m2
13:14 17 °C 14 °C 1008.5 hPa West 10 km/h 24 km/h 84% 0.0 mm 142 W/m2
13:19 17 °C 14 °C 1008.5 hPa WNW 13 km/h 23 km/h 84% 0.0 mm 155 W/m2
13:24 16 °C 13 °C 1008.6 hPa WNW 11 km/h 23 km/h 83% 0.0 mm 236 W/m2
13:29 16 °C 13 °C 1008.5 hPa WNW 10 km/h 19 km/h 83% 0.0 mm 236 W/m2
13:34 16 °C 13 °C 1008.5 hPa WNW 12 km/h 23 km/h 82% 0.0 mm 171 W/m2
13:39 16 °C 13 °C 1008.5 hPa WNW 15 km/h 29 km/h 81% 0.0 mm 186 W/m2
13:44 16 °C 13 °C 1008.5 hPa WNW 12 km/h 29 km/h 81% 0.0 mm 232 W/m2
13:49 16 °C 13 °C 1008.4 hPa WNW 10 km/h 23 km/h 81% 0.0 mm 260 W/m2
13:54 16 °C 13 °C 1008.4 hPa WNW 11 km/h 24 km/h 80% 0.0 mm 199 W/m2
13:59 16 °C 13 °C 1008.5 hPa WNW 11 km/h 24 km/h 79% 0.0 mm 230 W/m2
14:04 16 °C 12 °C 1008.4 hPa WNW 13 km/h 26 km/h 78% 0.0 mm 244 W/m2
14:09 16 °C 13 °C 1008.4 hPa WNW 11 km/h 26 km/h 78% 0.0 mm 388 W/m2
14:14 17 °C 13 °C 1008.4 hPa WNW 9 km/h 16 km/h 78% 0.0 mm 476 W/m2
14:19 17 °C 13 °C 1008.2 hPa NW 9 km/h 18 km/h 78% 0.0 mm 631 W/m2
14:24 17 °C 13 °C 1008.2 hPa NW 10 km/h 29 km/h 77% 0.0 mm 554 W/m2
14:29 17 °C 13 °C 1008.2 hPa WNW 15 km/h 31 km/h 73% 0.0 mm 388 W/m2
14:34 17 °C 12 °C 1008.1 hPa WNW 13 km/h 26 km/h 72% 0.0 mm 455 W/m2
14:39 17 °C 13 °C 1008.2 hPa WNW 13 km/h 29 km/h 73% 0.0 mm 455 W/m2
14:44 17 °C 12 °C 1008.4 hPa WNW 16 km/h 29 km/h 74% 0.0 mm 436 W/m2
14:49 17 °C 12 °C 1008.4 hPa WNW 14 km/h 26 km/h 74% 0.0 mm 1035 W/m2
14:54 17 °C 13 °C 1008.4 hPa WNW 15 km/h 31 km/h 74% 0.0 mm 1035 W/m2
14:59 17 °C 12 °C 1008.4 hPa WNW 14 km/h 31 km/h 74% 0.0 mm 350 W/m2
15:04 17 °C 12 °C 1008.5 hPa WNW 17 km/h 31 km/h 73% 0.0 mm 1023 W/m2
15:09 17 °C 12 °C 1008.5 hPa WNW 16 km/h 31 km/h 73% 0.0 mm 786 W/m2
15:14 16 °C 12 °C 1008.5 hPa WNW 13 km/h 26 km/h 73% 0.0 mm 666 W/m2
15:19 16 °C 12 °C 1008.5 hPa WNW 14 km/h 27 km/h 74% 0.0 mm 629 W/m2
15:24 16 °C 12 °C 1008.5 hPa WNW 17 km/h 34 km/h 73% 0.0 mm 833 W/m2
15:29 16 °C 12 °C 1008.5 hPa WNW 20 km/h 31 km/h 72% 0.0 mm 833 W/m2
15:34 17 °C 11 °C 1008.5 hPa WNW 16 km/h 31 km/h 71% 0.0 mm 793 W/m2
15:39 16 °C 11 °C 1008.5 hPa WNW 17 km/h 29 km/h 70% 0.0 mm 772 W/m2
15:44 16 °C 11 °C 1008.6 hPa WNW 14 km/h 29 km/h 71% 0.0 mm 304 W/m2
15:49 16 °C 11 °C 1008.7 hPa WNW 18 km/h 31 km/h 71% 0.0 mm 364 W/m2
15:54 16 °C 11 °C 1008.8 hPa WNW 16 km/h 29 km/h 71% 0.0 mm 775 W/m2
15:59 16 °C 11 °C 1008.8 hPa WNW 16 km/h 32 km/h 71% 0.0 mm 775 W/m2
16:04 16 °C 11 °C 1008.8 hPa WNW 16 km/h 27 km/h 70% 0.0 mm 763 W/m2
16:09 16 °C 11 °C 1008.7 hPa WNW 13 km/h 27 km/h 69% 0.0 mm 788 W/m2
16:14 17 °C 11 °C 1008.7 hPa WNW 18 km/h 27 km/h 67% 0.0 mm 763 W/m2
16:19 17 °C 10 °C 1008.7 hPa WNW 17 km/h 35 km/h 66% 0.0 mm 733 W/m2
16:24 17 °C 10 °C 1008.7 hPa WNW 17 km/h 32 km/h 64% 0.0 mm 686 W/m2
16:29 17 °C 10 °C 1008.7 hPa WNW 12 km/h 23 km/h 64% 0.0 mm 647 W/m2
16:34 17 °C 9 °C 1008.8 hPa WNW 16 km/h 29 km/h 62% 0.0 mm 633 W/m2
16:39 17 °C 9 °C 1008.8 hPa WNW 19 km/h 32 km/h 61% 0.0 mm 624 W/m2
16:44 16 °C 9 °C 1008.7 hPa WNW 17 km/h 32 km/h 61% 0.0 mm 663 W/m2
16:49 16 °C 9 °C 1008.8 hPa WNW 15 km/h 29 km/h 61% 0.0 mm 659 W/m2
16:54 17 °C 9 °C 1008.8 hPa WNW 18 km/h 32 km/h 60% 0.0 mm 652 W/m2
16:59 17 °C 9 °C 1008.8 hPa WNW 17 km/h 27 km/h 60% 0.0 mm 636 W/m2
17:04 17 °C 9 °C 1008.9 hPa WNW 19 km/h 32 km/h 60% 0.0 mm 643 W/m2
17:09 16 °C 8 °C 1008.9 hPa WNW 18 km/h 34 km/h 59% 0.0 mm 636 W/m2
17:14 16 °C 8 °C 1008.9 hPa WNW 13 km/h 32 km/h 59% 0.0 mm 299 W/m2
17:19 16 °C 8 °C 1008.9 hPa WNW 16 km/h 29 km/h 60% 0.0 mm 508 W/m2
17:24 16 °C 8 °C 1008.9 hPa WNW 16 km/h 35 km/h 59% 0.0 mm 508 W/m2
17:29 16 °C 8 °C 1008.8 hPa West 14 km/h 35 km/h 61% 0.0 mm 359 W/m2
17:34 16 °C 8 °C 1008.8 hPa WNW 16 km/h 27 km/h 62% 0.0 mm 671 W/m2
17:39 16 °C 8 °C 1008.7 hPa WNW 14 km/h 29 km/h 61% 0.0 mm 619 W/m2
17:44 16 °C 8 °C 1008.7 hPa WNW 13 km/h 26 km/h 60% 0.0 mm 512 W/m2
17:49 16 °C 8 °C 1008.7 hPa WNW 15 km/h 29 km/h 61% 0.0 mm 512 W/m2
17:54 16 °C 8 °C 1008.8 hPa WNW 15 km/h 29 km/h 62% 0.0 mm 257 W/m2
17:59 16 °C 8 °C 1008.9 hPa WNW 15 km/h 27 km/h 63% 0.0 mm 496 W/m2
18:04 16 °C 8 °C 1009.1 hPa WNW 16 km/h 31 km/h 63% 0.0 mm 496 W/m2
18:09 15 °C 8 °C 1009.0 hPa WNW 14 km/h 31 km/h 64% 0.0 mm 475 W/m2
18:14 15 °C 8 °C 1008.9 hPa WNW 17 km/h 29 km/h 65% 0.0 mm 443 W/m2
18:19 15 °C 8 °C 1008.9 hPa WNW 17 km/h 27 km/h 64% 0.0 mm 418 W/m2
18:24 14 °C 8 °C 1008.9 hPa WNW 15 km/h 24 km/h 65% 0.0 mm 388 W/m2
18:29 14 °C 8 °C 1009.1 hPa WNW 15 km/h 26 km/h 66% 0.0 mm 346 W/m2
18:34 15 °C 8 °C 1009.2 hPa WNW 15 km/h 26 km/h 66% 0.0 mm 346 W/m2
18:39 15 °C 8 °C 1009.2 hPa WNW 16 km/h 34 km/h 65% 0.0 mm 341 W/m2
18:44 15 °C 8 °C 1009.2 hPa WNW 14 km/h 31 km/h 65% 0.0 mm 315 W/m2
18:49 15 °C 8 °C 1009.2 hPa WNW 17 km/h 31 km/h 63% 0.0 mm 299 W/m2
18:54 15 °C 8 °C 1009.2 hPa WNW 15 km/h 27 km/h 63% 0.0 mm 241 W/m2
18:59 14 °C 8 °C 1009.2 hPa WNW 14 km/h 29 km/h 64% 0.0 mm 165 W/m2
19:04 14 °C 8 °C 1009.2 hPa WNW 13 km/h 31 km/h 65% 0.0 mm 49 W/m2
19:09 14 °C 7 °C 1009.1 hPa WNW 19 km/h 34 km/h 63% 0.0 mm 54 W/m2
19:14 14 °C 7 °C 1009.2 hPa WNW 10 km/h 19 km/h 64% 0.0 mm 60 W/m2
19:19 14 °C 7 °C 1009.3 hPa WNW 10 km/h 23 km/h 65% 0.0 mm 58 W/m2
19:24 14 °C 7 °C 1009.2 hPa WNW 14 km/h 23 km/h 64% 0.0 mm 171 W/m2
19:29 14 °C 7 °C 1009.2 hPa WNW 14 km/h 23 km/h 64% 0.0 mm 171 W/m2
19:34 14 °C 8 °C 1009.3 hPa WNW 10 km/h 19 km/h 64% 0.0 mm 148 W/m2
19:39 14 °C 7 °C 1009.3 hPa WNW 13 km/h 24 km/h 64% 0.0 mm 79 W/m2
19:44 14 °C 7 °C 1009.3 hPa WNW 13 km/h 23 km/h 65% 0.0 mm 104 W/m2
19:49 14 °C 7 °C 1009.3 hPa WNW 12 km/h 23 km/h 64% 0.0 mm 97 W/m2
19:54 14 °C 7 °C 1009.2 hPa WNW 10 km/h 21 km/h 65% 0.0 mm 91 W/m2
19:59 14 °C 7 °C 1009.3 hPa WNW 10 km/h 23 km/h 65% 0.0 mm 76 W/m2
20:04 14 °C 7 °C 1009.2 hPa WNW 8 km/h 18 km/h 65% 0.0 mm 69 W/m2
20:09 14 °C 7 °C 1009.2 hPa WNW 11 km/h 21 km/h 64% 0.0 mm 60 W/m2
20:14 13 °C 7 °C 1009.2 hPa WNW 12 km/h 23 km/h 64% 0.0 mm 39 W/m2
20:19 13 °C 7 °C 1009.3 hPa WNW 9 km/h 14 km/h 65% 0.0 mm 39 W/m2
20:24 13 °C 7 °C 1009.3 hPa WNW 9 km/h 16 km/h 66% 0.0 mm 35 W/m2
20:29 13 °C 7 °C 1009.4 hPa WNW 9 km/h 14 km/h 66% 0.0 mm 28 W/m2
20:34 13 °C 7 °C 1009.4 hPa WNW 9 km/h 14 km/h 66% 0.0 mm 25 W/m2
20:39 13 °C 7 °C 1009.3 hPa WNW 7 km/h 16 km/h 67% 0.0 mm 21 W/m2
20:44 13 °C 7 °C 1009.4 hPa WNW 8 km/h 18 km/h 67% 0.0 mm 18 W/m2
20:49 13 °C 7 °C 1009.4 hPa WNW 9 km/h 18 km/h 67% 0.0 mm 14 W/m2
20:54 13 °C 7 °C 1009.3 hPa WNW 9 km/h 14 km/h 67% 0.0 mm 12 W/m2
20:59 13 °C 7 °C 1009.4 hPa WNW 7 km/h 14 km/h 67% 0.0 mm 11 W/m2
21:04 13 °C 7 °C 1009.5 hPa WNW 8 km/h 14 km/h 67% 0.0 mm 9 W/m2
21:09 12 °C 7 °C 1009.5 hPa WNW 5 km/h 14 km/h 68% 0.0 mm 5 W/m2
21:14 12 °C 7 °C 1009.5 hPa WNW 5 km/h 14 km/h 68% 0.0 mm 5 W/m2
21:19 12 °C 7 °C 1009.6 hPa West 4 km/h 10 km/h 69% 0.0 mm 0 W/m2
21:24 12 °C 7 °C 1009.6 hPa West 4 km/h 13 km/h 70% 0.0 mm 0 W/m2
21:29 12 °C 7 °C 1009.7 hPa WNW 5 km/h 13 km/h 70% 0.0 mm 0 W/m2
21:34 12 °C 7 °C 1009.7 hPa WNW 3 km/h 10 km/h 71% 0.0 mm 0 W/m2
21:39 12 °C 7 °C 1009.6 hPa West 4 km/h 11 km/h 71% 0.0 mm 0 W/m2
21:44 11 °C 7 °C 1009.6 hPa WSW 4 km/h 11 km/h 72% 0.0 mm 0 W/m2
21:49 11 °C 7 °C 1009.6 hPa WSW 5 km/h 11 km/h 73% 0.0 mm 0 W/m2
21:54 11 °C 7 °C 1009.6 hPa WNW 3 km/h 8 km/h 74% 0.0 mm 0 W/m2
21:59 11 °C 7 °C 1009.5 hPa WNW 2 km/h 8 km/h 74% 0.0 mm 0 W/m2
22:04 11 °C 7 °C 1009.5 hPa West 4 km/h 10 km/h 75% 0.0 mm 0 W/m2
22:09 11 °C 7 °C 1009.4 hPa WSW 5 km/h 13 km/h 76% 0.0 mm 0 W/m2
22:14 11 °C 7 °C 1009.4 hPa WSW 7 km/h 11 km/h 76% 0.0 mm 0 W/m2
22:19 11 °C 7 °C 1009.4 hPa WSW 5 km/h 11 km/h 76% 0.0 mm 0 W/m2
22:24 11 °C 7 °C 1009.4 hPa West 6 km/h 10 km/h 76% 0.0 mm 0 W/m2
22:29 11 °C 7 °C 1009.4 hPa West 5 km/h 10 km/h 77% 0.0 mm 0 W/m2
22:34 11 °C 7 °C 1009.4 hPa West 4 km/h 10 km/h 77% 0.0 mm 0 W/m2
22:39 11 °C 7 °C 1009.4 hPa West 3 km/h 10 km/h 77% 0.0 mm 0 W/m2
22:44 11 °C 7 °C 1009.4 hPa WSW 5 km/h 11 km/h 78% 0.0 mm 0 W/m2
22:49 11 °C 7 °C 1009.4 hPa West 4 km/h 8 km/h 78% 0.0 mm 0 W/m2
22:54 11 °C 7 °C 1009.3 hPa West 5 km/h 11 km/h 79% 0.0 mm 0 W/m2
22:59 11 °C 7 °C 1009.3 hPa West 6 km/h 11 km/h 78% 0.0 mm 0 W/m2
23:04 11 °C 7 °C 1009.3 hPa West 5 km/h 11 km/h 78% 0.0 mm 0 W/m2
23:09 11 °C 7 °C 1009.3 hPa West 5 km/h 11 km/h 78% 0.0 mm 0 W/m2
23:14 11 °C 7 °C 1009.3 hPa West 4 km/h 8 km/h 79% 0.0 mm 0 W/m2
23:19 10 °C 7 °C 1009.3 hPa West 4 km/h 11 km/h 79% 0.0 mm 0 W/m2
23:24 10 °C 7 °C 1009.2 hPa West 2 km/h 8 km/h 79% 0.0 mm 0 W/m2
23:29 10 °C 7 °C 1009.2 hPa West 4 km/h 8 km/h 79% 0.0 mm 0 W/m2
23:34 10 °C 7 °C 1009.2 hPa West 3 km/h 8 km/h 80% 0.0 mm 0 W/m2
23:39 9 °C 7 °C 1009.3 hPa West 4 km/h 10 km/h 81% 0.0 mm 0 W/m2
23:44 9 °C 7 °C 1009.3 hPa West 3 km/h 10 km/h 81% 0.0 mm 0 W/m2
23:49 9 °C 7 °C 1009.2 hPa West 5 km/h 10 km/h 82% 0.0 mm 0 W/m2
23:54 9 °C 7 °C 1009.2 hPa West 4 km/h 10 km/h 83% 0.0 mm 0 W/m2
23:59 9 °C 7 °C 1009.2 hPa West 5 km/h 10 km/h 83% 0.0 mm 0 W/m2
Compliments of Weather Underground - 4.25 mb